sensor_id;sensor_type;location;lat;lon;timestamp;P1;durP1;ratioP1;P2;durP2;ratioP2
69005;SDS011;56061;51.748;19.620;2022-08-19T00:01:58;12.60;;;8.70;;
69005;SDS011;56061;51.748;19.620;2022-08-19T00:04:28;11.40;;;8.20;;
69005;SDS011;56061;51.748;19.620;2022-08-19T00:06:57;12.20;;;8.30;;
69005;SDS011;56061;51.748;19.620;2022-08-19T00:09:25;12.00;;;7.80;;
69005;SDS011;56061;51.748;19.620;2022-08-19T00:11:54;12.60;;;8.40;;
69005;SDS011;56061;51.748;19.620;2022-08-19T00:14:23;13.40;;;8.00;;
69005;SDS011;56061;51.748;19.620;2022-08-19T00:16:51;13.30;;;8.60;;
69005;SDS011;56061;51.748;19.620;2022-08-19T00:19:21;13.40;;;8.70;;
69005;SDS011;56061;51.748;19.620;2022-08-19T00:21:49;14.30;;;9.40;;
69005;SDS011;56061;51.748;19.620;2022-08-19T00:24:16;15.50;;;10.10;;
69005;SDS011;56061;51.748;19.620;2022-08-19T00:26:44;17.50;;;9.90;;
69005;SDS011;56061;51.748;19.620;2022-08-19T00:29:14;15.00;;;10.40;;
69005;SDS011;56061;51.748;19.620;2022-08-19T00:31:45;13.50;;;9.50;;
69005;SDS011;56061;51.748;19.620;2022-08-19T00:34:14;14.50;;;9.50;;
69005;SDS011;56061;51.748;19.620;2022-08-19T00:36:42;14.20;;;9.30;;
69005;SDS011;56061;51.748;19.620;2022-08-19T00:39:11;13.70;;;9.40;;
69005;SDS011;56061;51.748;19.620;2022-08-19T00:41:39;15.40;;;9.40;;
69005;SDS011;56061;51.748;19.620;2022-08-19T00:44:12;14.90;;;9.00;;
69005;SDS011;56061;51.748;19.620;2022-08-19T00:46:42;13.20;;;9.00;;
69005;SDS011;56061;51.748;19.620;2022-08-19T00:49:32;13.80;;;9.80;;
69005;SDS011;56061;51.748;19.620;2022-08-19T00:52:18;16.50;;;9.80;;
69005;SDS011;56061;51.748;19.620;2022-08-19T00:54:49;13.30;;;9.20;;
69005;SDS011;56061;51.748;19.620;2022-08-19T00:57:22;16.90;;;9.90;;
69005;SDS011;56061;51.748;19.620;2022-08-19T00:59:55;15.90;;;9.60;;
69005;SDS011;56061;51.748;19.620;2022-08-19T01:02:29;13.90;;;9.50;;
69005;SDS011;56061;51.748;19.620;2022-08-19T01:04:59;12.50;;;9.10;;
69005;SDS011;56061;51.748;19.620;2022-08-19T01:07:28;13.20;;;8.90;;
69005;SDS011;56061;51.748;19.620;2022-08-19T01:10:05;12.90;;;9.40;;
69005;SDS011;56061;51.748;19.620;2022-08-19T01:12:35;13.20;;;8.90;;
69005;SDS011;56061;51.748;19.620;2022-08-19T01:15:04;13.90;;;9.90;;
69005;SDS011;56061;51.748;19.620;2022-08-19T01:17:33;14.10;;;10.00;;
69005;SDS011;56061;51.748;19.620;2022-08-19T01:20:03;13.60;;;8.50;;
69005;SDS011;56061;51.748;19.620;2022-08-19T01:22:37;12.70;;;8.30;;
69005;SDS011;56061;51.748;19.620;2022-08-19T01:25:06;14.00;;;9.20;;
69005;SDS011;56061;51.748;19.620;2022-08-19T01:27:42;14.60;;;9.50;;
69005;SDS011;56061;51.748;19.620;2022-08-19T01:30:21;17.00;;;11.20;;
69005;SDS011;56061;51.748;19.620;2022-08-19T01:32:51;16.50;;;9.90;;
69005;SDS011;56061;51.748;19.620;2022-08-19T01:35:20;14.30;;;10.00;;
69005;SDS011;56061;51.748;19.620;2022-08-19T01:37:51;13.70;;;9.50;;
69005;SDS011;56061;51.748;19.620;2022-08-19T01:40:26;13.80;;;9.30;;
69005;SDS011;56061;51.748;19.620;2022-08-19T01:42:55;14.50;;;10.30;;
69005;SDS011;56061;51.748;19.620;2022-08-19T01:45:24;12.80;;;8.60;;
69005;SDS011;56061;51.748;19.620;2022-08-19T01:47:53;13.90;;;9.10;;
69005;SDS011;56061;51.748;19.620;2022-08-19T01:50:29;13.80;;;8.40;;
69005;SDS011;56061;51.748;19.620;2022-08-19T01:52:57;14.00;;;9.00;;
69005;SDS011;56061;51.748;19.620;2022-08-19T01:55:34;13.10;;;8.40;;
69005;SDS011;56061;51.748;19.620;2022-08-19T01:58:09;12.90;;;9.60;;
69005;SDS011;56061;51.748;19.620;2022-08-19T02:00:41;14.50;;;9.40;;
69005;SDS011;56061;51.748;19.620;2022-08-19T02:03:08;15.60;;;10.10;;
69005;SDS011;56061;51.748;19.620;2022-08-19T02:05:36;14.60;;;9.20;;
69005;SDS011;56061;51.748;19.620;2022-08-19T02:08:04;14.00;;;9.50;;
69005;SDS011;56061;51.748;19.620;2022-08-19T02:13:19;15.10;;;9.30;;
69005;SDS011;56061;51.748;19.620;2022-08-19T02:15:51;13.60;;;9.30;;
69005;SDS011;56061;51.748;19.620;2022-08-19T02:18:18;13.60;;;9.80;;
69005;SDS011;56061;51.748;19.620;2022-08-19T02:20:45;14.10;;;9.40;;
69005;SDS011;56061;51.748;19.620;2022-08-19T02:23:15;13.90;;;9.60;;
69005;SDS011;56061;51.748;19.620;2022-08-19T02:25:45;14.50;;;9.40;;
69005;SDS011;56061;51.748;19.620;2022-08-19T02:28:14;13.80;;;8.70;;
69005;SDS011;56061;51.748;19.620;2022-08-19T02:30:45;14.30;;;9.30;;
69005;SDS011;56061;51.748;19.620;2022-08-19T02:33:13;12.90;;;8.50;;
69005;SDS011;56061;51.748;19.620;2022-08-19T02:35:46;13.10;;;9.00;;
69005;SDS011;56061;51.748;19.620;2022-08-19T02:38:13;13.10;;;8.50;;
69005;SDS011;56061;51.748;19.620;2022-08-19T02:40:56;13.60;;;9.10;;
69005;SDS011;56061;51.748;19.620;2022-08-19T02:43:26;17.60;;;9.70;;
69005;SDS011;56061;51.748;19.620;2022-08-19T02:45:58;16.80;;;8.90;;
69005;SDS011;56061;51.748;19.620;2022-08-19T02:48:26;15.60;;;9.30;;
69005;SDS011;56061;51.748;19.620;2022-08-19T02:50:53;13.60;;;8.40;;
69005;SDS011;56061;51.748;19.620;2022-08-19T02:53:25;13.30;;;8.50;;
69005;SDS011;56061;51.748;19.620;2022-08-19T02:55:53;12.70;;;8.70;;
69005;SDS011;56061;51.748;19.620;2022-08-19T02:58:21;12.60;;;8.70;;
69005;SDS011;56061;51.748;19.620;2022-08-19T03:00:52;13.60;;;8.50;;
69005;SDS011;56061;51.748;19.620;2022-08-19T03:03:21;13.30;;;9.10;;
69005;SDS011;56061;51.748;19.620;2022-08-19T03:05:48;12.80;;;8.80;;
69005;SDS011;56061;51.748;19.620;2022-08-19T03:08:22;13.80;;;8.70;;
69005;SDS011;56061;51.748;19.620;2022-08-19T03:10:50;11.90;;;8.90;;
69005;SDS011;56061;51.748;19.620;2022-08-19T03:13:19;13.40;;;8.60;;
69005;SDS011;56061;51.748;19.620;2022-08-19T03:15:47;15.00;;;9.30;;
69005;SDS011;56061;51.748;19.620;2022-08-19T03:18:15;12.20;;;9.00;;
69005;SDS011;56061;51.748;19.620;2022-08-19T03:20:49;12.00;;;8.50;;
69005;SDS011;56061;51.748;19.620;2022-08-19T03:23:19;14.60;;;8.70;;
69005;SDS011;56061;51.748;19.620;2022-08-19T03:25:47;12.90;;;8.10;;
69005;SDS011;56061;51.748;19.620;2022-08-19T03:28:36;13.00;;;8.90;;
69005;SDS011;56061;51.748;19.620;2022-08-19T03:31:06;13.30;;;8.20;;
69005;SDS011;56061;51.748;19.620;2022-08-19T03:33:56;14.60;;;8.50;;
69005;SDS011;56061;51.748;19.620;2022-08-19T03:36:25;12.50;;;8.60;;
69005;SDS011;56061;51.748;19.620;2022-08-19T03:38:57;13.60;;;9.20;;
69005;SDS011;56061;51.748;19.620;2022-08-19T03:41:46;12.80;;;9.00;;
69005;SDS011;56061;51.748;19.620;2022-08-19T03:44:36;14.70;;;9.40;;
69005;SDS011;56061;51.748;19.620;2022-08-19T03:47:04;14.20;;;9.40;;
69005;SDS011;56061;51.748;19.620;2022-08-19T03:49:32;13.30;;;9.10;;
69005;SDS011;56061;51.748;19.620;2022-08-19T03:52:02;13.10;;;8.40;;
69005;SDS011;56061;51.748;19.620;2022-08-19T03:54:33;11.70;;;8.70;;
69005;SDS011;56061;51.748;19.620;2022-08-19T03:57:02;14.20;;;9.00;;
69005;SDS011;56061;51.748;19.620;2022-08-19T03:59:32;11.50;;;8.70;;
69005;SDS011;56061;51.748;19.620;2022-08-19T04:02:01;12.90;;;8.50;;
69005;SDS011;56061;51.748;19.620;2022-08-19T04:04:31;14.40;;;8.40;;
69005;SDS011;56061;51.748;19.620;2022-08-19T04:06:58;14.70;;;9.10;;
69005;SDS011;56061;51.748;19.620;2022-08-19T04:09:24;12.70;;;8.10;;
69005;SDS011;56061;51.748;19.620;2022-08-19T04:11:54;13.50;;;8.60;;
69005;SDS011;56061;51.748;19.620;2022-08-19T04:14:27;12.50;;;8.70;;
69005;SDS011;56061;51.748;19.620;2022-08-19T04:16:57;14.00;;;9.00;;
69005;SDS011;56061;51.748;19.620;2022-08-19T04:19:26;14.10;;;8.60;;
69005;SDS011;56061;51.748;19.620;2022-08-19T04:21:55;13.90;;;8.50;;
69005;SDS011;56061;51.748;19.620;2022-08-19T04:24:22;14.00;;;9.50;;
69005;SDS011;56061;51.748;19.620;2022-08-19T04:26:50;15.50;;;9.20;;
69005;SDS011;56061;51.748;19.620;2022-08-19T04:29:20;13.50;;;9.30;;
69005;SDS011;56061;51.748;19.620;2022-08-19T04:31:52;12.80;;;8.50;;
69005;SDS011;56061;51.748;19.620;2022-08-19T04:34:22;12.70;;;8.50;;
69005;SDS011;56061;51.748;19.620;2022-08-19T04:36:52;11.10;;;8.40;;
69005;SDS011;56061;51.748;19.620;2022-08-19T04:39:23;12.90;;;8.30;;
69005;SDS011;56061;51.748;19.620;2022-08-19T04:42:17;12.40;;;8.30;;
69005;SDS011;56061;51.748;19.620;2022-08-19T04:45:05;13.30;;;8.10;;
69005;SDS011;56061;51.748;19.620;2022-08-19T04:47:39;13.60;;;8.90;;
69005;SDS011;56061;51.748;19.620;2022-08-19T04:50:25;12.80;;;8.40;;
69005;SDS011;56061;51.748;19.620;2022-08-19T04:52:52;12.10;;;8.80;;
69005;SDS011;56061;51.748;19.620;2022-08-19T04:55:21;11.20;;;8.00;;
69005;SDS011;56061;51.748;19.620;2022-08-19T04:57:48;13.00;;;7.60;;
69005;SDS011;56061;51.748;19.620;2022-08-19T05:00:15;13.70;;;7.60;;
69005;SDS011;56061;51.748;19.620;2022-08-19T05:02:41;12.10;;;8.30;;
69005;SDS011;56061;51.748;19.620;2022-08-19T05:05:08;12.50;;;8.30;;
69005;SDS011;56061;51.748;19.620;2022-08-19T05:07:36;13.00;;;8.30;;
69005;SDS011;56061;51.748;19.620;2022-08-19T05:10:05;12.80;;;8.60;;
69005;SDS011;56061;51.748;19.620;2022-08-19T05:12:32;12.00;;;8.60;;
69005;SDS011;56061;51.748;19.620;2022-08-19T05:14:59;12.30;;;7.90;;
69005;SDS011;56061;51.748;19.620;2022-08-19T05:17:27;12.80;;;8.00;;
69005;SDS011;56061;51.748;19.620;2022-08-19T05:20:00;13.30;;;8.10;;
69005;SDS011;56061;51.748;19.620;2022-08-19T05:22:46;12.10;;;7.80;;
69005;SDS011;56061;51.748;19.620;2022-08-19T05:25:17;12.10;;;7.70;;
69005;SDS011;56061;51.748;19.620;2022-08-19T05:27:47;11.20;;;8.30;;
69005;SDS011;56061;51.748;19.620;2022-08-19T05:30:15;12.10;;;8.50;;
69005;SDS011;56061;51.748;19.620;2022-08-19T05:32:42;12.10;;;8.00;;
69005;SDS011;56061;51.748;19.620;2022-08-19T05:35:10;11.50;;;8.00;;
69005;SDS011;56061;51.748;19.620;2022-08-19T05:37:38;11.30;;;8.30;;
69005;SDS011;56061;51.748;19.620;2022-08-19T05:40:08;13.10;;;7.90;;
69005;SDS011;56061;51.748;19.620;2022-08-19T05:42:36;12.30;;;8.30;;
69005;SDS011;56061;51.748;19.620;2022-08-19T05:45:03;11.30;;;8.60;;
69005;SDS011;56061;51.748;19.620;2022-08-19T05:47:30;13.30;;;8.40;;
69005;SDS011;56061;51.748;19.620;2022-08-19T05:49:58;15.20;;;8.80;;
69005;SDS011;56061;51.748;19.620;2022-08-19T05:52:24;11.80;;;8.90;;
69005;SDS011;56061;51.748;19.620;2022-08-19T05:54:55;11.80;;;8.60;;
69005;SDS011;56061;51.748;19.620;2022-08-19T05:57:23;12.00;;;8.30;;
69005;SDS011;56061;51.748;19.620;2022-08-19T05:59:51;11.70;;;7.80;;
69005;SDS011;56061;51.748;19.620;2022-08-19T06:02:25;12.10;;;8.20;;
69005;SDS011;56061;51.748;19.620;2022-08-19T06:04:52;11.40;;;8.00;;
69005;SDS011;56061;51.748;19.620;2022-08-19T06:07:19;13.10;;;9.00;;
69005;SDS011;56061;51.748;19.620;2022-08-19T06:09:46;11.70;;;8.70;;
69005;SDS011;56061;51.748;19.620;2022-08-19T06:12:30;13.10;;;8.00;;
69005;SDS011;56061;51.748;19.620;2022-08-19T06:15:09;10.50;;;7.60;;
69005;SDS011;56061;51.748;19.620;2022-08-19T06:17:37;12.10;;;7.90;;
69005;SDS011;56061;51.748;19.620;2022-08-19T06:20:10;12.70;;;7.40;;
69005;SDS011;56061;51.748;19.620;2022-08-19T06:22:41;12.10;;;8.00;;
69005;SDS011;56061;51.748;19.620;2022-08-19T06:25:11;11.40;;;7.70;;
69005;SDS011;56061;51.748;19.620;2022-08-19T06:27:40;13.60;;;8.90;;
69005;SDS011;56061;51.748;19.620;2022-08-19T06:30:28;11.70;;;8.60;;
69005;SDS011;56061;51.748;19.620;2022-08-19T06:32:54;13.10;;;8.80;;
69005;SDS011;56061;51.748;19.620;2022-08-19T06:35:21;12.90;;;8.70;;
69005;SDS011;56061;51.748;19.620;2022-08-19T06:37:48;14.70;;;8.50;;
69005;SDS011;56061;51.748;19.620;2022-08-19T06:40:14;12.90;;;7.90;;
69005;SDS011;56061;51.748;19.620;2022-08-19T06:42:41;12.50;;;8.00;;
69005;SDS011;56061;51.748;19.620;2022-08-19T06:45:19;10.90;;;8.10;;
69005;SDS011;56061;51.748;19.620;2022-08-19T06:47:50;12.30;;;8.20;;
69005;SDS011;56061;51.748;19.620;2022-08-19T06:50:25;10.60;;;7.50;;
69005;SDS011;56061;51.748;19.620;2022-08-19T06:52:51;11.20;;;7.60;;
69005;SDS011;56061;51.748;19.620;2022-08-19T06:55:19;12.10;;;7.90;;
69005;SDS011;56061;51.748;19.620;2022-08-19T06:57:45;12.10;;;8.00;;
69005;SDS011;56061;51.748;19.620;2022-08-19T07:00:12;16.70;;;9.30;;
69005;SDS011;56061;51.748;19.620;2022-08-19T07:02:43;12.30;;;7.70;;
69005;SDS011;56061;51.748;19.620;2022-08-19T07:05:22;11.70;;;8.40;;
69005;SDS011;56061;51.748;19.620;2022-08-19T07:07:49;10.90;;;8.00;;
69005;SDS011;56061;51.748;19.620;2022-08-19T07:10:16;12.00;;;8.10;;
69005;SDS011;56061;51.748;19.620;2022-08-19T07:12:43;12.80;;;8.00;;
69005;SDS011;56061;51.748;19.620;2022-08-19T07:15:11;12.30;;;8.30;;
69005;SDS011;56061;51.748;19.620;2022-08-19T07:17:38;10.90;;;7.40;;
69005;SDS011;56061;51.748;19.620;2022-08-19T07:20:08;10.90;;;8.10;;
69005;SDS011;56061;51.748;19.620;2022-08-19T07:22:39;12.10;;;8.40;;
69005;SDS011;56061;51.748;19.620;2022-08-19T07:25:08;10.90;;;8.40;;
69005;SDS011;56061;51.748;19.620;2022-08-19T07:27:35;11.00;;;8.30;;
69005;SDS011;56061;51.748;19.620;2022-08-19T07:30:06;12.00;;;8.40;;
69005;SDS011;56061;51.748;19.620;2022-08-19T07:32:37;10.90;;;8.00;;
69005;SDS011;56061;51.748;19.620;2022-08-19T07:35:04;10.20;;;7.90;;
69005;SDS011;56061;51.748;19.620;2022-08-19T07:37:32;12.90;;;8.80;;
69005;SDS011;56061;51.748;19.620;2022-08-19T07:40:00;12.70;;;8.30;;
69005;SDS011;56061;51.748;19.620;2022-08-19T07:42:27;12.60;;;7.90;;
69005;SDS011;56061;51.748;19.620;2022-08-19T07:44:56;12.50;;;8.10;;
69005;SDS011;56061;51.748;19.620;2022-08-19T07:47:23;12.80;;;9.20;;
69005;SDS011;56061;51.748;19.620;2022-08-19T07:50:10;11.80;;;8.50;;
69005;SDS011;56061;51.748;19.620;2022-08-19T07:52:38;12.80;;;8.90;;
69005;SDS011;56061;51.748;19.620;2022-08-19T07:55:08;12.30;;;9.10;;
69005;SDS011;56061;51.748;19.620;2022-08-19T07:57:56;13.30;;;9.00;;
69005;SDS011;56061;51.748;19.620;2022-08-19T08:00:23;11.60;;;9.10;;
69005;SDS011;56061;51.748;19.620;2022-08-19T08:02:51;12.00;;;9.30;;
69005;SDS011;56061;51.748;19.620;2022-08-19T08:05:22;11.60;;;8.90;;
69005;SDS011;56061;51.748;19.620;2022-08-19T08:08:10;11.00;;;9.00;;
69005;SDS011;56061;51.748;19.620;2022-08-19T08:10:57;13.90;;;8.80;;
69005;SDS011;56061;51.748;19.620;2022-08-19T08:13:24;11.30;;;8.50;;
69005;SDS011;56061;51.748;19.620;2022-08-19T08:15:53;12.00;;;8.70;;
69005;SDS011;56061;51.748;19.620;2022-08-19T08:18:21;12.40;;;9.00;;
69005;SDS011;56061;51.748;19.620;2022-08-19T08:20:53;11.50;;;8.50;;
69005;SDS011;56061;51.748;19.620;2022-08-19T08:23:20;12.10;;;8.20;;
69005;SDS011;56061;51.748;19.620;2022-08-19T08:25:53;12.60;;;8.50;;
69005;SDS011;56061;51.748;19.620;2022-08-19T08:28:21;11.30;;;8.50;;
69005;SDS011;56061;51.748;19.620;2022-08-19T08:30:49;11.90;;;8.90;;
69005;SDS011;56061;51.748;19.620;2022-08-19T08:33:22;12.00;;;8.40;;
69005;SDS011;56061;51.748;19.620;2022-08-19T08:35:59;11.20;;;8.40;;
69005;SDS011;56061;51.748;19.620;2022-08-19T08:38:32;11.10;;;8.40;;
69005;SDS011;56061;51.748;19.620;2022-08-19T08:41:37;11.20;;;7.40;;
69005;SDS011;56061;51.748;19.620;2022-08-19T08:44:15;10.20;;;7.90;;
69005;SDS011;56061;51.748;19.620;2022-08-19T08:46:50;12.70;;;7.80;;
69005;SDS011;56061;51.748;19.620;2022-08-19T08:52:02;11.00;;;7.60;;
69005;SDS011;56061;51.748;19.620;2022-08-19T08:54:37;10.40;;;8.00;;
69005;SDS011;56061;51.748;19.620;2022-08-19T08:57:35;9.40;;;7.30;;
69005;SDS011;56061;51.748;19.620;2022-08-19T09:00:23;10.10;;;7.20;;
69005;SDS011;56061;51.748;19.620;2022-08-19T09:02:53;9.80;;;7.70;;
69005;SDS011;56061;51.748;19.620;2022-08-19T09:05:23;11.80;;;7.70;;
69005;SDS011;56061;51.748;19.620;2022-08-19T09:08:32;11.60;;;7.90;;
69005;SDS011;56061;51.748;19.620;2022-08-19T09:11:06;9.20;;;7.50;;
69005;SDS011;56061;51.748;19.620;2022-08-19T09:13:45;12.30;;;7.80;;
69005;SDS011;56061;51.748;19.620;2022-08-19T09:16:21;12.20;;;8.10;;
69005;SDS011;56061;51.748;19.620;2022-08-19T09:19:01;10.10;;;7.50;;
69005;SDS011;56061;51.748;19.620;2022-08-19T09:21:31;12.20;;;7.80;;
69005;SDS011;56061;51.748;19.620;2022-08-19T09:24:00;12.50;;;7.90;;
69005;SDS011;56061;51.748;19.620;2022-08-19T09:26:28;10.10;;;7.20;;
69005;SDS011;56061;51.748;19.620;2022-08-19T09:29:18;12.10;;;7.50;;
69005;SDS011;56061;51.748;19.620;2022-08-19T09:31:48;11.10;;;7.80;;
69005;SDS011;56061;51.748;19.620;2022-08-19T09:34:16;9.80;;;7.70;;
69005;SDS011;56061;51.748;19.620;2022-08-19T09:36:48;10.20;;;7.60;;
69005;SDS011;56061;51.748;19.620;2022-08-19T09:39:19;9.70;;;7.40;;
69005;SDS011;56061;51.748;19.620;2022-08-19T09:41:46;12.10;;;7.60;;
69005;SDS011;56061;51.748;19.620;2022-08-19T09:44:14;10.30;;;7.90;;
69005;SDS011;56061;51.748;19.620;2022-08-19T09:46:43;12.70;;;8.40;;
69005;SDS011;56061;51.748;19.620;2022-08-19T09:49:10;13.20;;;7.90;;
69005;SDS011;56061;51.748;19.620;2022-08-19T09:51:38;10.30;;;7.40;;
69005;SDS011;56061;51.748;19.620;2022-08-19T09:54:06;10.50;;;7.50;;
69005;SDS011;56061;51.748;19.620;2022-08-19T09:56:36;11.10;;;7.60;;
69005;SDS011;56061;51.748;19.620;2022-08-19T09:59:03;8.90;;;7.50;;
69005;SDS011;56061;51.748;19.620;2022-08-19T10:01:30;11.90;;;8.20;;
69005;SDS011;56061;51.748;19.620;2022-08-19T10:03:59;9.70;;;7.80;;
69005;SDS011;56061;51.748;19.620;2022-08-19T10:06:40;11.00;;;8.10;;
69005;SDS011;56061;51.748;19.620;2022-08-19T10:09:12;9.90;;;7.80;;
69005;SDS011;56061;51.748;19.620;2022-08-19T10:11:42;12.90;;;8.30;;
69005;SDS011;56061;51.748;19.620;2022-08-19T10:14:20;11.70;;;7.70;;
69005;SDS011;56061;51.748;19.620;2022-08-19T10:16:50;10.50;;;7.40;;
69005;SDS011;56061;51.748;19.620;2022-08-19T10:19:18;11.70;;;7.80;;
69005;SDS011;56061;51.748;19.620;2022-08-19T10:21:52;11.50;;;7.90;;
69005;SDS011;56061;51.748;19.620;2022-08-19T10:24:21;13.70;;;8.10;;
69005;SDS011;56061;51.748;19.620;2022-08-19T10:26:50;10.50;;;7.00;;
69005;SDS011;56061;51.748;19.620;2022-08-19T10:29:22;11.80;;;7.80;;
69005;SDS011;56061;51.748;19.620;2022-08-19T10:31:59;10.80;;;7.90;;
69005;SDS011;56061;51.748;19.620;2022-08-19T10:34:29;10.60;;;7.80;;
69005;SDS011;56061;51.748;19.620;2022-08-19T10:36:58;10.00;;;7.70;;
69005;SDS011;56061;51.748;19.620;2022-08-19T10:39:28;11.30;;;7.70;;
69005;SDS011;56061;51.748;19.620;2022-08-19T10:41:57;10.20;;;7.70;;
69005;SDS011;56061;51.748;19.620;2022-08-19T10:44:23;11.30;;;7.90;;
69005;SDS011;56061;51.748;19.620;2022-08-19T10:46:58;10.90;;;7.90;;
69005;SDS011;56061;51.748;19.620;2022-08-19T10:49:25;12.20;;;8.10;;
69005;SDS011;56061;51.748;19.620;2022-08-19T10:51:56;10.40;;;7.00;;
69005;SDS011;56061;51.748;19.620;2022-08-19T10:54:46;9.80;;;7.40;;
69005;SDS011;56061;51.748;19.620;2022-08-19T10:57:34;11.50;;;7.50;;
69005;SDS011;56061;51.748;19.620;2022-08-19T11:00:21;9.70;;;7.70;;
69005;SDS011;56061;51.748;19.620;2022-08-19T11:02:49;12.20;;;7.10;;
69005;SDS011;56061;51.748;19.620;2022-08-19T11:05:17;11.20;;;7.90;;
69005;SDS011;56061;51.748;19.620;2022-08-19T11:07:44;11.60;;;7.20;;
69005;SDS011;56061;51.748;19.620;2022-08-19T11:10:14;13.00;;;7.00;;
69005;SDS011;56061;51.748;19.620;2022-08-19T11:12:46;9.50;;;7.20;;
69005;SDS011;56061;51.748;19.620;2022-08-19T11:15:13;10.50;;;7.60;;
69005;SDS011;56061;51.748;19.620;2022-08-19T11:17:41;10.90;;;7.10;;
69005;SDS011;56061;51.748;19.620;2022-08-19T11:20:11;9.70;;;6.90;;
69005;SDS011;56061;51.748;19.620;2022-08-19T11:22:39;11.50;;;6.90;;
69005;SDS011;56061;51.748;19.620;2022-08-19T11:25:10;12.00;;;6.80;;
69005;SDS011;56061;51.748;19.620;2022-08-19T11:27:41;9.90;;;7.20;;
69005;SDS011;56061;51.748;19.620;2022-08-19T11:30:10;10.60;;;7.40;;
69005;SDS011;56061;51.748;19.620;2022-08-19T11:32:42;10.00;;;7.20;;
69005;SDS011;56061;51.748;19.620;2022-08-19T11:35:15;12.90;;;7.30;;
69005;SDS011;56061;51.748;19.620;2022-08-19T11:37:42;13.10;;;7.30;;
69005;SDS011;56061;51.748;19.620;2022-08-19T11:40:09;9.20;;;6.90;;
69005;SDS011;56061;51.748;19.620;2022-08-19T11:42:37;10.80;;;6.40;;
69005;SDS011;56061;51.748;19.620;2022-08-19T11:45:27;9.20;;;6.70;;
69005;SDS011;56061;51.748;19.620;2022-08-19T11:47:55;12.20;;;7.40;;
69005;SDS011;56061;51.748;19.620;2022-08-19T11:50:23;12.20;;;7.20;;
69005;SDS011;56061;51.748;19.620;2022-08-19T11:52:54;11.10;;;7.40;;
69005;SDS011;56061;51.748;19.620;2022-08-19T11:55:22;9.70;;;7.00;;
69005;SDS011;56061;51.748;19.620;2022-08-19T11:57:49;11.10;;;7.00;;
69005;SDS011;56061;51.748;19.620;2022-08-19T12:00:16;12.60;;;7.30;;
69005;SDS011;56061;51.748;19.620;2022-08-19T12:02:42;9.20;;;6.60;;
69005;SDS011;56061;51.748;19.620;2022-08-19T12:05:09;12.90;;;7.40;;
69005;SDS011;56061;51.748;19.620;2022-08-19T12:07:38;10.60;;;7.40;;
69005;SDS011;56061;51.748;19.620;2022-08-19T12:10:07;10.10;;;7.00;;
69005;SDS011;56061;51.748;19.620;2022-08-19T12:12:35;10.80;;;7.00;;
69005;SDS011;56061;51.748;19.620;2022-08-19T12:15:09;10.50;;;6.80;;
69005;SDS011;56061;51.748;19.620;2022-08-19T12:17:37;9.20;;;7.30;;
69005;SDS011;56061;51.748;19.620;2022-08-19T12:20:05;10.20;;;6.90;;
69005;SDS011;56061;51.748;19.620;2022-08-19T12:22:33;10.60;;;6.90;;
69005;SDS011;56061;51.748;19.620;2022-08-19T12:25:01;10.40;;;7.10;;
69005;SDS011;56061;51.748;19.620;2022-08-19T12:27:27;10.70;;;7.00;;
69005;SDS011;56061;51.748;19.620;2022-08-19T12:30:08;9.60;;;6.70;;
69005;SDS011;56061;51.748;19.620;2022-08-19T12:32:36;10.60;;;6.70;;
69005;SDS011;56061;51.748;19.620;2022-08-19T12:35:04;9.90;;;7.10;;
69005;SDS011;56061;51.748;19.620;2022-08-19T12:37:32;9.20;;;6.50;;
69005;SDS011;56061;51.748;19.620;2022-08-19T12:39:58;10.60;;;7.00;;
69005;SDS011;56061;51.748;19.620;2022-08-19T12:42:26;9.40;;;6.50;;
69005;SDS011;56061;51.748;19.620;2022-08-19T12:44:53;11.30;;;6.70;;
69005;SDS011;56061;51.748;19.620;2022-08-19T12:47:19;10.70;;;7.00;;
69005;SDS011;56061;51.748;19.620;2022-08-19T12:49:48;12.20;;;7.40;;
69005;SDS011;56061;51.748;19.620;2022-08-19T12:52:20;8.50;;;6.60;;
69005;SDS011;56061;51.748;19.620;2022-08-19T12:54:49;11.20;;;7.00;;
69005;SDS011;56061;51.748;19.620;2022-08-19T12:57:20;10.40;;;6.50;;
69005;SDS011;56061;51.748;19.620;2022-08-19T12:59:59;9.80;;;6.50;;
69005;SDS011;56061;51.748;19.620;2022-08-19T13:02:39;10.80;;;6.70;;
69005;SDS011;56061;51.748;19.620;2022-08-19T13:05:12;9.60;;;6.70;;
69005;SDS011;56061;51.748;19.620;2022-08-19T13:07:43;12.30;;;6.80;;
69005;SDS011;56061;51.748;19.620;2022-08-19T13:10:12;11.30;;;6.60;;
69005;SDS011;56061;51.748;19.620;2022-08-19T13:12:43;9.30;;;6.70;;
69005;SDS011;56061;51.748;19.620;2022-08-19T13:15:11;11.20;;;6.30;;
69005;SDS011;56061;51.748;19.620;2022-08-19T13:17:40;12.60;;;6.50;;
69005;SDS011;56061;51.748;19.620;2022-08-19T13:20:08;15.40;;;7.00;;
69005;SDS011;56061;51.748;19.620;2022-08-19T13:22:37;11.40;;;7.00;;
69005;SDS011;56061;51.748;19.620;2022-08-19T13:25:05;9.50;;;7.00;;
69005;SDS011;56061;51.748;19.620;2022-08-19T13:27:32;12.40;;;6.60;;
69005;SDS011;56061;51.748;19.620;2022-08-19T13:29:59;10.30;;;6.60;;
69005;SDS011;56061;51.748;19.620;2022-08-19T13:32:45;11.60;;;7.20;;
69005;SDS011;56061;51.748;19.620;2022-08-19T13:35:31;10.20;;;6.40;;
69005;SDS011;56061;51.748;19.620;2022-08-19T13:37:57;9.60;;;6.30;;
69005;SDS011;56061;51.748;19.620;2022-08-19T13:40:24;11.00;;;6.40;;
69005;SDS011;56061;51.748;19.620;2022-08-19T13:42:54;11.60;;;7.40;;
69005;SDS011;56061;51.748;19.620;2022-08-19T13:45:23;11.10;;;6.70;;
69005;SDS011;56061;51.748;19.620;2022-08-19T13:47:52;12.40;;;7.10;;
69005;SDS011;56061;51.748;19.620;2022-08-19T13:50:30;11.90;;;7.00;;
69005;SDS011;56061;51.748;19.620;2022-08-19T13:53:00;10.70;;;7.20;;
69005;SDS011;56061;51.748;19.620;2022-08-19T13:55:28;10.40;;;7.20;;
69005;SDS011;56061;51.748;19.620;2022-08-19T13:57:57;12.10;;;7.10;;
69005;SDS011;56061;51.748;19.620;2022-08-19T14:00:27;11.50;;;6.70;;
69005;SDS011;56061;51.748;19.620;2022-08-19T14:02:57;9.00;;;6.70;;
69005;SDS011;56061;51.748;19.620;2022-08-19T14:05:26;12.40;;;7.00;;
69005;SDS011;56061;51.748;19.620;2022-08-19T14:07:55;12.50;;;6.70;;
69005;SDS011;56061;51.748;19.620;2022-08-19T14:10:23;11.40;;;6.90;;
69005;SDS011;56061;51.748;19.620;2022-08-19T14:13:00;11.10;;;6.80;;
69005;SDS011;56061;51.748;19.620;2022-08-19T14:15:28;13.10;;;7.30;;
69005;SDS011;56061;51.748;19.620;2022-08-19T14:17:56;12.20;;;7.10;;
69005;SDS011;56061;51.748;19.620;2022-08-19T14:20:23;12.60;;;7.10;;
69005;SDS011;56061;51.748;19.620;2022-08-19T14:22:52;12.70;;;6.70;;
69005;SDS011;56061;51.748;19.620;2022-08-19T14:25:23;11.60;;;7.00;;
69005;SDS011;56061;51.748;19.620;2022-08-19T14:27:53;11.00;;;6.70;;
69005;SDS011;56061;51.748;19.620;2022-08-19T14:30:32;10.80;;;6.90;;
69005;SDS011;56061;51.748;19.620;2022-08-19T14:33:01;9.60;;;6.70;;
69005;SDS011;56061;51.748;19.620;2022-08-19T14:35:30;10.00;;;6.60;;
69005;SDS011;56061;51.748;19.620;2022-08-19T14:38:02;12.10;;;6.90;;
69005;SDS011;56061;51.748;19.620;2022-08-19T14:40:31;9.80;;;6.60;;
69005;SDS011;56061;51.748;19.620;2022-08-19T14:43:01;9.20;;;6.60;;
69005;SDS011;56061;51.748;19.620;2022-08-19T14:45:33;11.00;;;6.60;;
69005;SDS011;56061;51.748;19.620;2022-08-19T14:48:04;10.70;;;7.10;;
69005;SDS011;56061;51.748;19.620;2022-08-19T14:50:32;12.50;;;7.50;;
69005;SDS011;56061;51.748;19.620;2022-08-19T14:53:05;13.90;;;7.40;;